SWA3520 KMTJ-KDEN
Flight info
| Callsign | SWA3520 |
|---|---|
| Flight time | 0h 44m |
| Altitude | 31000 |
| Route | HBU3 HBU BBRRO TBARR4 |
| Aircraft | B737/M-SDE2E3FGHIRWXY/LB1 |
Departure
| Time | 2026-04-15 05:38 |
|---|---|
| Airport | Montrose Regional Airport (KMTJ) |
Arrival
| Time | 2026-04-15 06:22 |
|---|---|
| Airport | Denver International Airport (KDEN) |
| Time | Latitude | Longitude | Altitude | Speed | Heading |
|---|---|---|---|---|---|
| 2026-04-15 05:15 | 38.49368 | -107.89088 | 5767 ft | 0 kts | 226° |
| 2026-04-15 05:28 | 38.49370 | -107.89086 | 5767 ft | 1 kts | 226° |
| 2026-04-15 05:29 | 38.49380 | -107.89072 | 5767 ft | 3 kts | 226° |
| 2026-04-15 05:29 | 38.49393 | -107.89055 | 5767 ft | 3 kts | 226° |
| 2026-04-15 05:29 | 38.49397 | -107.89050 | 5767 ft | 0 kts | 226° |
| 2026-04-15 05:32 | 38.49395 | -107.89053 | 5767 ft | 1 kts | 247° |
| 2026-04-15 05:32 | 38.49405 | -107.89067 | 5767 ft | 4 kts | 342° |
| 2026-04-15 05:33 | 38.49446 | -107.89094 | 5767 ft | 9 kts | 321° |
| 2026-04-15 05:33 | 38.49505 | -107.89164 | 5767 ft | 14 kts | 317° |
| 2026-04-15 05:33 | 38.49584 | -107.89259 | 5767 ft | 18 kts | 317° |
| 2026-04-15 05:33 | 38.49664 | -107.89344 | 5767 ft | 16 kts | 321° |
| 2026-04-15 05:34 | 38.49760 | -107.89446 | 5767 ft | 20 kts | 318° |
| 2026-04-15 05:34 | 38.49870 | -107.89571 | 5767 ft | 23 kts | 318° |
| 2026-04-15 05:34 | 38.49979 | -107.89695 | 5767 ft | 19 kts | 319° |
| 2026-04-15 05:34 | 38.50057 | -107.89661 | 5767 ft | 15 kts | 47° |
| 2026-04-15 05:35 | 38.50136 | -107.89550 | 5767 ft | 19 kts | 48° |
| 2026-04-15 05:35 | 38.50231 | -107.89419 | 5767 ft | 18 kts | 47° |
| 2026-04-15 05:35 | 38.50266 | -107.89265 | 5767 ft | 11 kts | 51° |
| 2026-04-15 05:35 | 38.50278 | -107.89261 | 5767 ft | 0 kts | 354° |
| 2026-04-15 05:37 | 38.50332 | -107.89268 | 5767 ft | 34 kts | 354° |
| 2026-04-15 05:37 | 38.50834 | -107.89275 | 5767 ft | 108 kts | 0° |
| 2026-04-15 05:37 | 38.51804 | -107.89267 | 5804 ft | 163 kts | 0° |
| 2026-04-15 05:38 | 38.52990 | -107.89259 | 6347 ft | 178 kts | 0° |
| 2026-04-15 05:38 | 38.54243 | -107.89361 | 7186 ft | 178 kts | 341° |
| 2026-04-15 05:38 | 38.55210 | -107.90204 | 8131 ft | 168 kts | 312° |
| 2026-04-15 05:38 | 38.55963 | -107.91406 | 8629 ft | 184 kts | 309° |
| 2026-04-15 05:39 | 38.56975 | -107.92551 | 8908 ft | 208 kts | 334° |
| 2026-04-15 05:39 | 38.58483 | -107.92886 | 9180 ft | 233 kts | 4° |
| 2026-04-15 05:39 | 38.60070 | -107.92162 | 9486 ft | 256 kts | 32° |
| 2026-04-15 05:39 | 38.61259 | -107.90480 | 10301 ft | 262 kts | 58° |
| 2026-04-15 05:40 | 38.61805 | -107.88177 | 11043 ft | 282 kts | 82° |
| 2026-04-15 05:40 | 38.61592 | -107.85524 | 11477 ft | 311 kts | 105° |
| 2026-04-15 05:40 | 38.60563 | -107.83008 | 11953 ft | 333 kts | 127° |
| 2026-04-15 05:40 | 38.58810 | -107.81023 | 12725 ft | 341 kts | 148° |
| 2026-04-15 05:41 | 38.56540 | -107.79919 | 13715 ft | 350 kts | 168° |
| 2026-04-15 05:41 | 38.54129 | -107.79864 | 14832 ft | 345 kts | 188° |
| 2026-04-15 05:41 | 38.51916 | -107.80831 | 16246 ft | 335 kts | 208° |
| 2026-04-15 05:41 | 38.50006 | -107.82564 | 17318 ft | 331 kts | 219° |
| 2026-04-15 05:42 | 38.47952 | -107.83920 | 18242 ft | 338 kts | 199° |
| 2026-04-15 05:42 | 38.45575 | -107.84350 | 18777 ft | 360 kts | 181° |
| 2026-04-15 05:42 | 38.43024 | -107.84133 | 19198 ft | 375 kts | 184° |
| 2026-04-15 05:42 | 38.40467 | -107.84748 | 19926 ft | 375 kts | 202° |
| 2026-04-15 05:43 | 38.38156 | -107.86372 | 20639 ft | 375 kts | 221° |
| 2026-04-15 05:43 | 38.36394 | -107.88795 | 21355 ft | 374 kts | 239° |
| 2026-04-15 05:43 | 38.35314 | -107.91791 | 22048 ft | 373 kts | 257° |
| 2026-04-15 05:43 | 38.35040 | -107.95033 | 22827 ft | 369 kts | 275° |
| 2026-04-15 05:44 | 38.35569 | -107.98227 | 23439 ft | 372 kts | 293° |
| 2026-04-15 05:44 | 38.36869 | -108.01063 | 24034 ft | 374 kts | 311° |
| 2026-04-15 05:44 | 38.38818 | -108.03241 | 24707 ft | 374 kts | 329° |
| 2026-04-15 05:44 | 38.41201 | -108.04528 | 25359 ft | 378 kts | 348° |
| 2026-04-15 05:45 | 38.43877 | -108.04846 | 25714 ft | 392 kts | 3° |
| 2026-04-15 05:45 | 38.46554 | -108.04050 | 26255 ft | 395 kts | 22° |
| 2026-04-15 05:45 | 38.48851 | -108.02263 | 27388 ft | 383 kts | 39° |
| 2026-04-15 05:45 | 38.50563 | -107.99757 | 28519 ft | 370 kts | 58° |
| 2026-04-15 05:46 | 38.51579 | -107.96815 | 29614 ft | 357 kts | 72° |
| 2026-04-15 05:46 | 38.52065 | -107.93729 | 30293 ft | 358 kts | 86° |
| 2026-04-15 05:46 | 38.52060 | -107.90470 | 30447 ft | 369 kts | 97° |
| 2026-04-15 05:46 | 38.51812 | -107.87141 | 30604 ft | 384 kts | 98° |
| 2026-04-15 05:47 | 38.51550 | -107.83749 | 30749 ft | 397 kts | 98° |
| 2026-04-15 05:47 | 38.51271 | -107.80140 | 31017 ft | 406 kts | 98° |
| 2026-04-15 05:47 | 38.50995 | -107.76550 | 31239 ft | 397 kts | 99° |
| 2026-04-15 05:47 | 38.50722 | -107.73090 | 31207 ft | 386 kts | 100° |
| 2026-04-15 05:48 | 38.50192 | -107.66419 | 31185 ft | 369 kts | 99° |
| 2026-04-15 05:48 | 38.49681 | -107.59971 | 31168 ft | 360 kts | 99° |
| 2026-04-15 05:49 | 38.49172 | -107.53534 | 31160 ft | 373 kts | 101° |
| 2026-04-15 05:49 | 38.48636 | -107.46847 | 31156 ft | 380 kts | 101° |
| 2026-04-15 05:50 | 38.48136 | -107.40099 | 31153 ft | 381 kts | 100° |
| 2026-04-15 05:51 | 38.47340 | -107.29870 | 31146 ft | 395 kts | 100° |
| 2026-04-15 05:51 | 38.46765 | -107.22809 | 31145 ft | 402 kts | 100° |
| 2026-04-15 05:52 | 38.46173 | -107.15660 | 31144 ft | 403 kts | 100° |
| 2026-04-15 05:52 | 38.45574 | -107.08441 | 31135 ft | 409 kts | 98° |
| 2026-04-15 05:53 | 38.45910 | -107.01102 | 31142 ft | 420 kts | 80° |
| 2026-04-15 05:53 | 38.47584 | -106.93992 | 31150 ft | 408 kts | 75° |
| 2026-04-15 05:54 | 38.49360 | -106.87228 | 31141 ft | 402 kts | 72° |
| 2026-04-15 05:54 | 38.50236 | -106.83845 | 31155 ft | 390 kts | 74° |
| 2026-04-15 05:54 | 38.51069 | -106.80638 | 31141 ft | 374 kts | 76° |
| 2026-04-15 05:55 | 38.52645 | -106.74327 | 31116 ft | 384 kts | 68° |
| 2026-04-15 05:55 | 38.53473 | -106.71031 | 31139 ft | 396 kts | 68° |
| 2026-04-15 05:55 | 38.54313 | -106.67729 | 31173 ft | 385 kts | 70° |
| 2026-04-15 05:55 | 38.55110 | -106.64546 | 31154 ft | 369 kts | 71° |
| 2026-04-15 05:56 | 38.55886 | -106.61465 | 31122 ft | 364 kts | 67° |
| 2026-04-15 05:56 | 38.57493 | -106.55178 | 31125 ft | 376 kts | 66° |
| 2026-04-15 05:57 | 38.59104 | -106.48749 | 31118 ft | 385 kts | 66° |
| 2026-04-15 05:57 | 38.60734 | -106.42174 | 31110 ft | 391 kts | 66° |
| 2026-04-15 05:58 | 38.62395 | -106.35433 | 31088 ft | 407 kts | 68° |
| 2026-04-15 05:58 | 38.64110 | -106.28456 | 31078 ft | 413 kts | 67° |
| 2026-04-15 05:59 | 38.66615 | -106.21881 | 31080 ft | 407 kts | 50° |
| 2026-04-15 05:59 | 38.70115 | -106.16233 | 31090 ft | 407 kts | 45° |
| 2026-04-15 06:00 | 38.73162 | -106.11603 | 31081 ft | 411 kts | 45° |
| 2026-04-15 06:00 | 38.76828 | -106.05990 | 31073 ft | 412 kts | 45° |
| 2026-04-15 06:00 | 38.78702 | -106.03110 | 30949 ft | 418 kts | 46° |
| 2026-04-15 06:01 | 38.80551 | -106.00262 | 30608 ft | 416 kts | 46° |
| 2026-04-15 06:01 | 38.82401 | -105.97408 | 30100 ft | 417 kts | 47° |
| 2026-04-15 06:01 | 38.84269 | -105.94543 | 29527 ft | 420 kts | 49° |
| 2026-04-15 06:01 | 38.86125 | -105.91660 | 28949 ft | 422 kts | 50° |
| 2026-04-15 06:02 | 38.88011 | -105.88725 | 28470 ft | 419 kts | 48° |
| 2026-04-15 06:02 | 38.89860 | -105.85865 | 28180 ft | 412 kts | 47° |
| 2026-04-15 06:02 | 38.91673 | -105.83053 | 28138 ft | 397 kts | 46° |
| 2026-04-15 06:02 | 38.93403 | -105.80368 | 27854 ft | 390 kts | 45° |
| 2026-04-15 06:03 | 38.95132 | -105.77669 | 27233 ft | 393 kts | 45° |
| 2026-04-15 06:03 | 38.96910 | -105.74898 | 26474 ft | 401 kts | 46° |
| 2026-04-15 06:03 | 38.98695 | -105.72119 | 25768 ft | 407 kts | 48° |
| 2026-04-15 06:03 | 39.00456 | -105.69324 | 25481 ft | 397 kts | 47° |
| 2026-04-15 06:04 | 39.02200 | -105.66599 | 24890 ft | 392 kts | 45° |
| 2026-04-15 06:04 | 39.03925 | -105.63944 | 24536 ft | 385 kts | 45° |
| 2026-04-15 06:04 | 39.05630 | -105.61308 | 24158 ft | 383 kts | 46° |
| 2026-04-15 06:04 | 39.07317 | -105.58685 | 23778 ft | 380 kts | 46° |
| 2026-04-15 06:05 | 39.08989 | -105.56079 | 23402 ft | 375 kts | 46° |
| 2026-04-15 06:05 | 39.10640 | -105.53505 | 23027 ft | 371 kts | 46° |
| 2026-04-15 06:05 | 39.12309 | -105.50919 | 22640 ft | 371 kts | 49° |
| 2026-04-15 06:05 | 39.13960 | -105.48375 | 22264 ft | 372 kts | 52° |
| 2026-04-15 06:06 | 39.15569 | -105.45790 | 21833 ft | 368 kts | 48° |
| 2026-04-15 06:06 | 39.17151 | -105.43257 | 21385 ft | 360 kts | 45° |
| 2026-04-15 06:06 | 39.18721 | -105.40784 | 20953 ft | 354 kts | 45° |
| 2026-04-15 06:06 | 39.20266 | -105.38343 | 20523 ft | 350 kts | 52° |
| 2026-04-15 06:07 | 39.21826 | -105.35913 | 20113 ft | 349 kts | 53° |
| 2026-04-15 06:07 | 39.23323 | -105.33481 | 19715 ft | 344 kts | 53° |
| 2026-04-15 06:07 | 39.24820 | -105.31064 | 19305 ft | 338 kts | 51° |
| 2026-04-15 06:07 | 39.26285 | -105.28738 | 18908 ft | 333 kts | 51° |
| 2026-04-15 06:08 | 39.27605 | -105.26296 | 18514 ft | 333 kts | 60° |
| 2026-04-15 06:08 | 39.28458 | -105.23523 | 17998 ft | 336 kts | 72° |
| 2026-04-15 06:08 | 39.28994 | -105.20605 | 17671 ft | 331 kts | 76° |
| 2026-04-15 06:08 | 39.29399 | -105.17694 | 17383 ft | 325 kts | 78° |
| 2026-04-15 06:09 | 39.29736 | -105.14818 | 16940 ft | 325 kts | 79° |
| 2026-04-15 06:09 | 39.30069 | -105.11948 | 16548 ft | 323 kts | 79° |
| 2026-04-15 06:09 | 39.30403 | -105.09081 | 16162 ft | 324 kts | 79° |
| 2026-04-15 06:09 | 39.30743 | -105.06157 | 15773 ft | 326 kts | 79° |
| 2026-04-15 06:10 | 39.31081 | -105.03261 | 15388 ft | 327 kts | 79° |
| 2026-04-15 06:10 | 39.31413 | -105.00378 | 15002 ft | 325 kts | 80° |
| 2026-04-15 06:10 | 39.31820 | -104.97558 | 14768 ft | 314 kts | 74° |
| 2026-04-15 06:10 | 39.32362 | -104.94877 | 14556 ft | 305 kts | 72° |
| 2026-04-15 06:11 | 39.32899 | -104.92265 | 14347 ft | 296 kts | 72° |
| 2026-04-15 06:11 | 39.33388 | -104.89728 | 14144 ft | 288 kts | 73° |
| 2026-04-15 06:11 | 39.33873 | -104.87263 | 13904 ft | 281 kts | 71° |
| 2026-04-15 06:11 | 39.34450 | -104.84875 | 13652 ft | 274 kts | 68° |
| 2026-04-15 06:12 | 39.35044 | -104.82587 | 13403 ft | 269 kts | 68° |
| 2026-04-15 06:12 | 39.35640 | -104.80295 | 13151 ft | 266 kts | 68° |
| 2026-04-15 06:12 | 39.36210 | -104.78011 | 12954 ft | 262 kts | 68° |
| 2026-04-15 06:12 | 39.36849 | -104.75816 | 12849 ft | 262 kts | 65° |
| 2026-04-15 06:13 | 39.37546 | -104.73626 | 12760 ft | 265 kts | 66° |
| 2026-04-15 06:13 | 39.38229 | -104.71421 | 12668 ft | 263 kts | 62° |
| 2026-04-15 06:13 | 39.39124 | -104.69406 | 12557 ft | 255 kts | 47° |
| 2026-04-15 06:13 | 39.40415 | -104.67922 | 12469 ft | 245 kts | 30° |
| 2026-04-15 06:14 | 39.41900 | -104.66899 | 12379 ft | 239 kts | 18° |
| 2026-04-15 06:14 | 39.43497 | -104.66422 | 12291 ft | 235 kts | 3° |
| 2026-04-15 06:14 | 39.45133 | -104.66368 | 12204 ft | 235 kts | 359° |
| 2026-04-15 06:14 | 39.46762 | -104.66394 | 12113 ft | 235 kts | 357° |
| 2026-04-15 06:15 | 39.48401 | -104.66442 | 12025 ft | 236 kts | 357° |
| 2026-04-15 06:15 | 39.50067 | -104.66454 | 11775 ft | 240 kts | 358° |
| 2026-04-15 06:15 | 39.51740 | -104.66430 | 11454 ft | 241 kts | 358° |
| 2026-04-15 06:15 | 39.53413 | -104.66407 | 11132 ft | 241 kts | 357° |
| 2026-04-15 06:16 | 39.55095 | -104.66389 | 10814 ft | 241 kts | 358° |
| 2026-04-15 06:16 | 39.56759 | -104.66369 | 10489 ft | 239 kts | 358° |
| 2026-04-15 06:16 | 39.58418 | -104.66347 | 10165 ft | 238 kts | 358° |
| 2026-04-15 06:16 | 39.60081 | -104.66327 | 9841 ft | 236 kts | 358° |
| 2026-04-15 06:17 | 39.61706 | -104.66309 | 9532 ft | 234 kts | 358° |
| 2026-04-15 06:17 | 39.63360 | -104.66290 | 9196 ft | 233 kts | 359° |
| 2026-04-15 06:17 | 39.64969 | -104.66271 | 8887 ft | 229 kts | 1° |
| 2026-04-15 06:17 | 39.66526 | -104.66252 | 8583 ft | 221 kts | 2° |
| 2026-04-15 06:18 | 39.68026 | -104.66234 | 8292 ft | 211 kts | 2° |
| 2026-04-15 06:18 | 39.69461 | -104.66216 | 8016 ft | 201 kts | 3° |
| 2026-04-15 06:18 | 39.70855 | -104.66197 | 7745 ft | 196 kts | 2° |
| 2026-04-15 06:18 | 39.72183 | -104.66183 | 7507 ft | 184 kts | 1° |
| 2026-04-15 06:19 | 39.73432 | -104.66168 | 7234 ft | 178 kts | 1° |
| 2026-04-15 06:19 | 39.74622 | -104.66155 | 7056 ft | 162 kts | 3° |
| 2026-04-15 06:19 | 39.75692 | -104.66142 | 6852 ft | 146 kts | 5° |
| 2026-04-15 06:19 | 39.76643 | -104.66125 | 6635 ft | 129 kts | 1° |
| 2026-04-15 06:20 | 39.77532 | -104.66117 | 6465 ft | 128 kts | 358° |
| 2026-04-15 06:20 | 39.78436 | -104.66107 | 6306 ft | 131 kts | 357° |
| 2026-04-15 06:20 | 39.79368 | -104.66097 | 6134 ft | 138 kts | 357° |
| 2026-04-15 06:20 | 39.80352 | -104.66085 | 5944 ft | 144 kts | 358° |
| 2026-04-15 06:21 | 39.81377 | -104.66073 | 5747 ft | 150 kts | 359° |
| 2026-04-15 06:21 | 39.82414 | -104.66060 | 5547 ft | 150 kts | 0° |
| 2026-04-15 06:21 | 39.83441 | -104.66048 | 5442 ft | 143 kts | 0° |
| 2026-04-15 06:21 | 39.84345 | -104.66037 | 5439 ft | 107 kts | 0° |
| 2026-04-15 06:22 | 39.84893 | -104.66035 | 5439 ft | 54 kts | 0° |
| 2026-04-15 06:22 | 39.85136 | -104.66053 | 5439 ft | 27 kts | 338° |
| 2026-04-15 06:22 | 39.85296 | -104.66170 | 5439 ft | 26 kts | 323° |
| 2026-04-15 06:22 | 39.85405 | -104.66242 | 5439 ft | 0 kts | 0° |